CheckWX is a tool to help pilots better visualize weather data.  It is not intended as a substitute for an official pre-flight weather briefing.

10:31:16 UTC

KDZJ METAR
Blairsville Airport
Blairsville, Georgia, USA
Current

16 mins ago

KDZJ 201015Z AUTO 20003KT 7SM -RA OVC019 04/03 A2960 RMK AO2 T00440028
Observed
Apr-20 @ 10:15 UTC
Wind
  • 200° at 3 KTS
Visibility
7 SM
Flight Rules
MVFR
Conditions
Light Rain
Cloud Levels
  • Overcast at 1,900' AGL
Temperature
C / 39°F
Dewpoint
C / 37°F
Humidity
93%
Altimeter
29.6" Hg
Pressure
1002.42 hPa
Previous

36 mins ago

KDZJ 200955Z AUTO 20004KT 10SM BKN019 OVC026 04/03 A2960 RMK AO2 T00440027
Observed
Apr-20 @ 09:55 UTC
Wind
  • 200° at 4 KTS
Visibility
10 SM
Flight Rules
MVFR
Cloud Levels
  • Broken at 1,900' AGL
  • Overcast at 2,600' AGL
Temperature
C / 39°F
Dewpoint
C / 37°F
Humidity
93%
Altimeter
29.6" Hg
Pressure
1002.42 hPa
Previous

56 mins ago

KDZJ 200935Z AUTO 00000KT 10SM -RA BKN019 OVC026 04/02 A2960 RMK AO2 T00430025
Observed
Apr-20 @ 09:35 UTC
Visibility
10 SM
Flight Rules
MVFR
Conditions
Light Rain
Cloud Levels
  • Broken at 1,900' AGL
  • Overcast at 2,600' AGL
Temperature
C / 39°F
Dewpoint
C / 37°F
Humidity
93%
Altimeter
29.6" Hg
Pressure
1002.42 hPa